San Antonio, Valles Caldera, New Mexico Weather observations

Data are for 10 minute period ending at time listed.
 Day   Time   Solar   Ave.   Ave.  Ave.  Vector  Max.   Baro.   Total    
  of    of     Rad.   Air    Rel.  Wind   Wind   Wind  Press.  Precip.   
Year   Day            Temp.  Hum.  Speed  Dir.   Gust                    
2016   (MST)  Kw/m2    F      %     mph   deg.    mph    mb.     in.     
-------------------------------------------------------------------------
 240    0:00   0.00   41.6    90    0.0     0     0.0   99999.0    0.00 
 240    0:10   0.00   40.9    90    0.0     0     0.0   99999.0    0.00 
 240    0:20   0.00   40.7    91    0.0     0     0.0   99999.0    0.00 
 240    0:30   0.00   40.5    91    0.0     0     0.0   99999.0    0.00 
 240    0:40   0.00   40.4    92    0.0     0     0.0   99999.0    0.00 
 240    0:50   0.00   40.5    92    0.0     0     0.0   99999.0    0.00 
 240    1:00   0.00   40.3    92    0.0     0     0.0   99999.0    0.00 
 240    1:10   0.00   40.2    93    0.0     0     0.0   99999.0    0.00 
 240    1:20   0.00   40.3    93    0.1     9     1.8   99999.0    0.00 
 240    1:30   0.00   39.4    91    0.2   303     1.8   99999.0    0.00 
 240    1:40   0.00   38.9    92    0.0     0     0.0   99999.0    0.00 
 240    1:50   0.00   39.2    93    0.0     0     0.0   99999.0    0.00 
 240    2:00   0.00   38.8    93    0.0     0     0.0   99999.0    0.00 
 240    2:10   0.00   37.9    93    0.0     0     0.0   99999.0    0.00 
 240    2:20   0.00   38.2    94    0.0     0     0.0   99999.0    0.00 
 240    2:30   0.00   38.7    94    0.0     0     0.0   99999.0    0.00 
 240    2:40   0.00   39.0    94    0.0     0     0.0   99999.0    0.00 
 240    2:50   0.00   38.4    93    0.0     0     0.0   99999.0    0.00 
 240    3:00   0.00   37.5    93    0.0     0     0.0   99999.0    0.00 
 240    3:10   0.00   37.3    94    0.0     0     0.0   99999.0    0.00 
 240    3:20   0.00   37.3    94    0.0     0     0.0   99999.0    0.00 
 240    3:30   0.00   37.3    94    0.0     0     0.0   99999.0    0.00 
 240    3:40   0.00   37.6    94    0.0     0     0.0   99999.0    0.00 
 240    3:50   0.00   37.1    94    0.0     0     0.0   99999.0    0.00 
 240    4:00   0.00   37.2    94    0.0     0     0.0   99999.0    0.00 
 240    4:10   0.00   37.0    94    0.0     0     0.0   99999.0    0.00 
 240    4:20   0.00   36.5    94    0.0     0     0.0   99999.0    0.00 
 240    4:30   0.00   36.6    95    0.0     0     0.0   99999.0    0.00 
 240    4:40   0.00   36.2    95    0.0     0     0.0   99999.0    0.00 
 240    4:50   0.00   36.3    95    0.3   322     1.8   99999.0    0.00 
 240    5:00   0.00   36.4    95    0.0     0     0.0   99999.0    0.00 
 240    5:10   0.00   35.7    95    0.0     0     0.0   99999.0    0.00 
 240    5:20   0.00   35.8    95    0.0     0     0.0   99999.0    0.00 
 240    5:30   0.00   35.2    95    0.0     0     0.0   99999.0    0.00 
 240    5:40   0.00   35.2    95    0.0     0     0.0   99999.0    0.00 
 240    5:50   0.01   35.3    95    0.0     0     0.0   99999.0    0.00 
 240    6:00   0.02   35.8    95    0.0     0     0.0   99999.0    0.00 
 240    6:10   0.03   36.3    95    0.0     0     0.0   99999.0    0.00 
 240    6:20   0.03   36.3    95    0.0     0     0.0   99999.0    0.00 
 240    6:30   0.05   36.8    95    0.0     0     0.0   99999.0    0.00 
 240    6:40   0.09   37.8    95    0.0     0     0.0   99999.0    0.00 
 240    6:50   0.09   39.3    96    0.0     0     0.0   99999.0    0.00 
 240    7:00   0.11   40.2    95    0.0     0     0.0   99999.0    0.00 
 240    7:10   0.12   41.2    95    0.0     0     0.0   99999.0    0.00 
 240    7:20   0.13   41.8    93    0.0     0     0.0   99999.0    0.00 
 240    7:30   0.27   44.0    91    0.0     0     0.0   99999.0    0.00 
 240    7:40   0.35   48.5    80    0.6   244     3.0   99999.0    0.00 
 240    7:50   0.38   48.8    80    0.3   245     1.8   99999.0    0.00 
 240    8:00   0.41   50.6    79    1.2   248     3.6   99999.0    0.00 
 240    8:10   0.45   54.6    70    0.4   196     2.4   99999.0    0.00 
 240    8:20   0.48   55.0    66    1.4   155     3.0   99999.0    0.00 
 240    8:30   0.52   57.3    63    0.7   233     2.4   99999.0    0.00 
 240    8:40   0.56   57.5    65    1.9   242     4.2   99999.0    0.00 
 240    8:50   0.59   60.1    62    1.4   266     4.2   99999.0    0.00 
 240    9:00   0.62   62.7    55    2.6   289     5.4   99999.0    0.00 
 240    9:10   0.53   66.6    45    3.6   293     6.6   99999.0    0.00 
 240    9:20   0.61   65.2    46    3.8   290     6.0   99999.0    0.00 
 240    9:30   0.49   65.4    45    4.2   290     6.6   99999.0    0.00 
 240    9:40   0.30   64.7    46    3.5   294     7.2   99999.0    0.00 
 240    9:50   0.59   64.2    48    2.7   302     6.0   99999.0    0.00 
 240   10:00   0.87   66.8    42    3.6   311     7.2   99999.0    0.00 
 240   10:10   0.45   64.7    42    6.0   241    10.2   99999.0    0.00 
 240   10:20   0.37   61.8    47    5.3   204    11.3   99999.0    0.00 
 240   10:30   0.84   62.9    49    4.6   254    10.2   99999.0    0.00 
 240   10:40   0.98   64.9    45    6.4   182    11.3   99999.0    0.00 
 240   10:50   0.92   65.3    46    6.2   186    12.5   99999.0    0.00 
 240   11:00   1.04   65.6    47    8.2   197    14.3   99999.0    0.00 
 240   11:10   0.97   66.1    45    7.6   257    16.1   99999.0    0.00 
 240   11:20   0.50   64.9    44    9.7   281    15.5   99999.0    0.00 
 240   11:30   0.16   61.9    48    6.5   320    11.3   99999.0    0.00 
 240   11:40   0.13   60.7    53    4.8   331     8.4   99999.0    0.00 
 240   11:50   0.14   58.6    66    3.6    10     9.0   99999.0    0.03 
 240   12:00   0.19   54.9    82    3.6    39     6.0   99999.0    0.00 
 240   12:10   0.22   55.6    81    3.4    22     5.4   99999.0    0.00 
 240   12:20   0.16   56.8    79    2.7   355     4.8   99999.0    0.02 
 240   12:30   0.34   55.9    83    3.6    50     6.6   99999.0    0.01 
 240   12:40   1.00   57.9    80    4.0    29     7.2   99999.0    0.00 
 240   12:50   0.45   62.5    60    2.2   322     4.2   99999.0    0.00 
 240   13:00   0.69   63.5    60    4.6   347     9.0   99999.0    0.00 
 240   13:10   0.29   62.9    51    5.1    11    11.3   99999.0    0.00 
 240   13:20   0.50   63.7    50    2.2     9     4.8   99999.0    0.00 
 240   13:30   0.54   65.0    48    3.3    98     6.0   99999.0    0.00 
 240   13:40   0.47   65.2    47    2.6    47     4.8   99999.0    0.00 
 240   13:50   0.88   66.6    45    3.3   215     7.8   99999.0    0.00 
 240   14:00   0.55   66.7    45    4.2   236     9.0   99999.0    0.00 
 240   14:10   0.32   65.2    49    6.1   220     9.0   99999.0    0.00 
 240   14:20   0.26   63.6    52    4.0   202     6.6   99999.0    0.00 
 240   14:30   0.44   64.7    47    4.6   257    14.3   99999.0    0.00 
 240   14:40   0.69   67.2    37    7.0   267    10.8   99999.0    0.00 
 240   14:50   0.67   67.2    38    5.7   261     9.6   99999.0    0.00 
 240   15:00   0.72   68.1    38    4.2   240     8.4   99999.0    0.00 
 240   15:10   0.56   69.4    35    3.5   237     8.4   99999.0    0.00 
 240   15:20   0.27   67.4    41    4.9   219     9.6   99999.0    0.00 
 240   15:30   0.18   64.5    44    7.2   249    12.5   99999.0    0.00 
 240   15:40   0.19   63.4    46    9.1   268    13.1   99999.0    0.00 
 240   15:50   0.16   62.3    51    8.2   334    16.1   99999.0    0.00 
 240   16:00   0.12   60.4    54    7.4   356    14.9   99999.0    0.00 
 240   16:10   0.10   59.5    55    6.3   339    17.3   99999.0    0.00 
 240   16:20   0.08   58.9    55    8.0   329    14.3   99999.0    0.00 
 240   16:30   0.04   57.6    58   11.3   296    22.1   99999.0    0.00 
 240   16:40   0.02   55.5    66   12.9   294    20.3   99999.0    0.01 
 240   16:50   0.02   52.1    77   10.2   299    20.3   99999.0    0.02 
 240   17:00   0.01   51.0    79   11.6   275    18.5   99999.0    0.00 
 240   17:10   0.01   50.2    81   10.6   279    20.3   99999.0    0.02 
 240   17:20   0.02   49.2    85    6.5   318    13.1   99999.0    0.02 
 240   17:30   0.02   48.8    88    2.4     1     4.8   99999.0    0.02 
 240   17:40   0.02   48.6    88    2.4    36     5.4   99999.0    0.01 
 240   17:50   0.02   48.6    85    3.7    57     7.2   99999.0    0.00 
 240   18:00   0.02   49.1    82    3.9   115    11.3   99999.0    0.00 
 240   18:10   0.01   48.8    88    6.5   118     9.6   99999.0    0.00 
 240   18:20   0.01   48.6    88    1.7    73     4.2   99999.0    0.00 
 240   18:30   0.01   48.7    88    1.6    12     3.6   99999.0    0.00 
 240   18:40   0.01   48.2    90    1.5    44     3.6   99999.0    0.00 
 240   18:50   0.01   47.9    90    1.0   329     4.2   99999.0    0.00 
 240   19:00   0.00   47.6    91    2.1    79     4.2   99999.0    0.00 
 240   19:10   0.00   47.3    91    1.8   107     6.0   99999.0    0.00 
 240   19:20   0.00   47.2    90    2.0    45     4.2   99999.0    0.00 
 240   19:30   0.00   46.7    91    3.4    56     6.0   99999.0    0.00 
 240   19:40   0.00   46.7    90    4.0    88     7.2   99999.0    0.00 
 240   19:50   0.00   47.2    87    1.7    84     5.4   99999.0    0.00 
 240   20:00   0.00   46.3    89    3.2    66     6.0   99999.0    0.00 
 240   20:10   0.00   45.6    92    3.1    11     4.2   99999.0    0.00 
 240   20:20   0.00   45.4    92    2.1    80     3.6   99999.0    0.00 
 240   20:30   0.00   45.0    92    1.9    65     3.6   99999.0    0.00 
 240   20:40   0.00   45.0    93    0.4   336     1.8   99999.0    0.00 
 240   20:50   0.00   44.8    93    1.5     7     3.0   99999.0    0.00 
 240   21:00   0.00   44.6    93    2.1    16     3.6   99999.0    0.00 
 240   21:10   0.00   44.5    93    0.8    20     2.4   99999.0    0.00 
 240   21:20   0.00   44.3    94    1.1    52     2.4   99999.0    0.00 
 240   21:30   0.00   43.8    93    2.2   331     4.8   99999.0    0.00 
 240   21:40   0.00   43.2    93    1.2   339     3.6   99999.0    0.00 
 240   21:50   0.00   43.1    94    1.4    93     3.0   99999.0    0.00 
 240   22:00   0.00   42.8    94    0.9    24     2.4   99999.0    0.00 
 240   22:10   0.00   42.4    94    1.5    24     3.0   99999.0    0.00 
 240   22:20   0.00   42.3    94    2.1    39     3.6   99999.0    0.00 
 240   22:30   0.00   41.9    94    2.1    37     3.6   99999.0    0.00 
 240   22:40   0.00   41.6    94    2.0    29     3.0   99999.0    0.00 
 240   22:50   0.00   41.5    94    1.6    69     2.4   99999.0    0.00 
 240   23:00   0.00   40.7    94    1.8   324     3.6   99999.0    0.00 
 240   23:10   0.00   40.5    94    1.1   328     3.6   99999.0    0.00 
 240   23:20   0.00   40.2    94    0.2    87     1.2   99999.0    0.00 

Return to San Antonio, Valles Caldera graphs page.


Western Regional Climate Center,wrcc@dri.edu